Time;durP1;ratioP1;P1;durP2;ratioP2;P2;SDS_P1;SDS_P2;PMS_P1;PMS_P2;Temp;Humidity;BMP_temperature;BMP_pressure;BME280_temperature;BME280_humidity;BME280_pressure;Samples;Min_cycle;Max_cycle;Signal;HPM_P1;HPM_P2
2023/02/08 00:01:24;;;;;;;106.88;31.88;;;;;;;;;;5071752;28;20287;-67
2023/02/08 00:03:51;;;;;;;110.78;32.67;;;;;;;;;;5071621;28;20221;-67
2023/02/08 00:06:19;;;;;;;92.00;25.50;;;;;;;;;;5071592;28;20696;-66
2023/02/08 00:08:47;;;;;;;84.18;19.17;;;;;;;;;;5071094;28;20202;-67
2023/02/08 00:11:14;;;;;;;77.53;17.38;;;;;;;;;;5075426;28;20911;-67
2023/02/08 00:13:42;;;;;;;81.18;17.13;;;;;;;;;;5075717;28;20232;-67
2023/02/08 00:16:09;;;;;;;100.00;28.10;;;;;;;;;;5075577;28;20209;-67
2023/02/08 00:18:36;;;;;;;86.28;22.35;;;;;;;;;;5075085;28;20212;-67
2023/02/08 00:21:07;;;;;;;85.50;21.08;;;;;;;;;;5075296;28;20228;-67
2023/02/08 00:23:34;;;;;;;84.90;21.38;;;;;;;;;;5075038;28;20721;-67
2023/02/08 00:26:03;;;;;;;83.68;19.73;;;;;;;;;;5075494;28;20205;-67
2023/02/08 00:28:30;;;;;;;83.65;19.77;;;;;;;;;;5074981;28;20696;-66
2023/02/08 00:30:57;;;;;;;83.35;19.80;;;;;;;;;;5075340;28;20204;-67
2023/02/08 00:33:24;;;;;;;85.60;22.40;;;;;;;;;;5075018;28;20212;-66
2023/02/08 00:35:52;;;;;;;79.25;19.15;;;;;;;;;;5075153;28;20205;-67
2023/02/08 00:38:19;;;;;;;82.05;19.95;;;;;;;;;;5075060;28;20207;-67
2023/02/08 00:40:46;;;;;;;84.45;18.92;;;;;;;;;;5074845;28;20225;-67
2023/02/08 00:43:15;;;;;;;84.88;19.83;;;;;;;;;;5074959;28;20691;-67
2023/02/08 00:45:42;;;;;;;78.72;18.50;;;;;;;;;;5075205;28;20207;-66
2023/02/08 00:48:09;;;;;;;81.78;18.83;;;;;;;;;;5074768;28;20208;-67
2023/02/08 00:50:36;;;;;;;83.63;17.95;;;;;;;;;;5074656;28;20201;-67
2023/02/08 00:53:03;;;;;;;84.53;18.00;;;;;;;;;;5074747;28;20205;-67
2023/02/08 00:55:30;;;;;;;79.80;18.38;;;;;;;;;;5074836;28;20232;-67
2023/02/08 00:57:57;;;;;;;82.97;18.05;;;;;;;;;;5074533;28;20209;-67
2023/02/08 01:00:26;;;;;;;86.30;19.45;;;;;;;;;;5074754;28;20244;-67
2023/02/08 01:02:53;;;;;;;77.50;18.15;;;;;;;;;;5074485;28;20212;-67
2023/02/08 01:05:20;;;;;;;83.93;20.65;;;;;;;;;;5074649;28;20221;-67
2023/02/08 01:07:47;;;;;;;78.80;17.65;;;;;;;;;;5074777;28;20211;-67
2023/02/08 01:10:14;;;;;;;83.00;18.55;;;;;;;;;;5074273;28;20209;-67
2023/02/08 01:12:41;;;;;;;87.80;19.27;;;;;;;;;;5074577;28;20573;-67
2023/02/08 01:15:09;;;;;;;97.43;23.73;;;;;;;;;;5074362;28;20221;-67
2023/02/08 01:17:37;;;;;;;89.50;20.48;;;;;;;;;;5074237;28;20594;-67
2023/02/08 01:20:04;;;;;;;94.90;23.85;;;;;;;;;;5074072;28;20225;-67
2023/02/08 01:22:31;;;;;;;101.70;26.48;;;;;;;;;;5073315;28;20295;-67
2023/02/08 01:24:59;;;;;;;98.85;23.92;;;;;;;;;;5073984;28;20237;-66
2023/02/08 01:27:27;;;;;;;99.40;25.05;;;;;;;;;;5074006;28;20674;-67
2023/02/08 01:29:54;;;;;;;101.57;26.00;;;;;;;;;;5073538;28;20212;-67
2023/02/08 01:32:21;;;;;;;93.80;22.33;;;;;;;;;;5074265;28;20205;-67
2023/02/08 01:34:50;;;;;;;107.70;27.67;;;;;;;;;;5074126;28;20743;-67
2023/02/08 01:37:17;;;;;;;97.90;24.90;;;;;;;;;;5073994;28;20209;-67
2023/02/08 01:39:44;;;;;;;91.45;24.20;;;;;;;;;;5073632;28;20201;-66
2023/02/08 01:42:11;;;;;;;102.40;25.65;;;;;;;;;;5074160;28;20205;-66
2023/02/08 01:44:57;;;;;;;92.97;24.55;;;;;;;;;;5073583;28;20230;-67
2023/02/08 01:47:24;;;;;;;94.78;22.80;;;;;;;;;;5074018;28;20588;-66
2023/02/08 01:49:52;;;;;;;89.85;21.67;;;;;;;;;;5073386;28;20216;-67
2023/02/08 01:52:21;;;;;;;84.95;20.15;;;;;;;;;;5073859;28;20208;-66
2023/02/08 01:54:50;;;;;;;88.72;20.77;;;;;;;;;;5073540;28;20225;-66
2023/02/08 01:57:17;;;;;;;93.10;20.80;;;;;;;;;;5073426;28;20216;-67
2023/02/08 01:59:46;;;;;;;86.10;20.77;;;;;;;;;;5073389;28;20209;-67
2023/02/08 02:02:15;;;;;;;87.13;20.17;;;;;;;;;;5073755;28;20209;-67
2023/02/08 02:04:42;;;;;;;82.22;19.92;;;;;;;;;;5073322;28;20736;-67
2023/02/08 02:07:10;;;;;;;88.40;20.02;;;;;;;;;;5073425;28;20201;-67
2023/02/08 02:09:40;;;;;;;94.47;19.38;;;;;;;;;;5072849;28;20201;-67
2023/02/08 02:12:08;;;;;;;83.50;18.85;;;;;;;;;;5073381;28;20216;-67
2023/02/08 02:14:35;;;;;;;82.93;17.90;;;;;;;;;;5073237;28;20744;-67
2023/02/08 02:17:03;;;;;;;87.70;19.00;;;;;;;;;;5073298;28;20212;-67
2023/02/08 02:19:34;;;;;;;84.03;20.58;;;;;;;;;;5072849;28;20202;-67
2023/02/08 02:22:06;;;;;;;90.10;19.80;;;;;;;;;;5072662;28;20221;-67
2023/02/08 02:24:56;;;;;;;81.80;18.10;;;;;;;;;;5072841;28;20239;-67
2023/02/08 02:27:29;;;;;;;86.72;19.27;;;;;;;;;;5073052;28;20216;-67
2023/02/08 02:30:25;;;;;;;83.25;19.02;;;;;;;;;;5072539;28;20592;-67
2023/02/08 02:33:06;;;;;;;87.82;19.70;;;;;;;;;;5071877;28;20296;-67
2023/02/08 02:35:38;;;;;;;79.03;17.80;;;;;;;;;;5072896;28;20227;-68
2023/02/08 02:38:09;;;;;;;83.55;18.10;;;;;;;;;;5071852;28;20700;-67
2023/02/08 02:40:42;;;;;;;78.95;17.10;;;;;;;;;;5072516;28;20225;-68
2023/02/08 02:46:03;;;;;;;82.53;17.95;;;;;;;;;;5072692;28;20201;-67
2023/02/08 02:48:39;;;;;;;83.18;17.10;;;;;;;;;;5072340;28;20646;-68
2023/02/08 02:51:09;;;;;;;88.82;18.13;;;;;;;;;;5072655;28;20205;-67
2023/02/08 02:53:40;;;;;;;81.20;17.48;;;;;;;;;;5072627;28;20229;-67
2023/02/08 02:56:10;;;;;;;77.18;16.33;;;;;;;;;;5072375;28;20739;-67
2023/02/08 02:58:38;;;;;;;81.20;16.48;;;;;;;;;;5071866;28;20209;-67
2023/02/08 03:01:05;;;;;;;77.80;16.75;;;;;;;;;;5072141;28;20232;-67
2023/02/08 03:03:34;;;;;;;78.97;17.30;;;;;;;;;;5072403;28;20221;-67
2023/02/08 03:06:03;;;;;;;81.57;17.30;;;;;;;;;;5072290;28;20205;-66
2023/02/08 03:08:49;;;;;;;81.28;17.33;;;;;;;;;;5072110;28;20208;-67
2023/02/08 03:11:17;;;;;;;77.97;17.20;;;;;;;;;;5072253;28;20200;-67
2023/02/08 03:13:55;;;;;;;78.88;17.92;;;;;;;;;;5071968;28;20232;-66
2023/02/08 03:16:25;;;;;;;76.55;15.95;;;;;;;;;;5072171;28;20208;-67
2023/02/08 03:19:00;;;;;;;82.28;16.63;;;;;;;;;;5071820;28;20232;-66
2023/02/08 03:21:31;;;;;;;79.07;16.45;;;;;;;;;;5071942;28;20221;-67
2023/02/08 03:24:01;;;;;;;81.45;16.70;;;;;;;;;;5071771;28;20233;-67
2023/02/08 03:26:32;;;;;;;82.20;15.45;;;;;;;;;;5072149;28;20205;-67
2023/02/08 03:29:02;;;;;;;83.93;17.17;;;;;;;;;;5071769;28;20587;-67
2023/02/08 03:31:31;;;;;;;81.38;17.67;;;;;;;;;;5072025;28;20208;-67
2023/02/08 03:34:03;;;;;;;80.88;16.23;;;;;;;;;;5071836;28;20225;-67
2023/02/08 03:36:32;;;;;;;78.47;16.13;;;;;;;;;;5072049;28;20216;-66
2023/02/08 03:39:01;;;;;;;84.13;16.48;;;;;;;;;;5071711;28;20204;-66
2023/02/08 03:41:31;;;;;;;76.60;15.60;;;;;;;;;;5071911;28;20233;-67
2023/02/08 03:44:01;;;;;;;76.45;16.90;;;;;;;;;;5071454;28;20689;-67
2023/02/08 03:46:29;;;;;;;81.93;17.10;;;;;;;;;;5071924;28;20579;-67
2023/02/08 03:49:00;;;;;;;77.80;14.95;;;;;;;;;;5071428;28;20212;-66
2023/02/08 03:51:30;;;;;;;79.07;16.08;;;;;;;;;;5072102;28;20197;-66
2023/02/08 03:53:58;;;;;;;78.18;16.60;;;;;;;;;;5071850;28;20229;-67
2023/02/08 03:56:29;;;;;;;75.70;16.85;;;;;;;;;;5071866;28;20817;-67
2023/02/08 03:58:58;;;;;;;84.03;16.13;;;;;;;;;;5071332;28;20205;-67
2023/02/08 04:01:29;;;;;;;77.80;16.75;;;;;;;;;;5071528;28;20248;-66
2023/02/08 04:03:56;;;;;;;82.70;18.23;;;;;;;;;;5071715;28;20251;-67
2023/02/08 04:06:24;;;;;;;82.32;18.08;;;;;;;;;;5071773;28;20250;-67
2023/02/08 04:08:52;;;;;;;81.72;16.05;;;;;;;;;;5071296;28;20204;-67
2023/02/08 04:11:19;;;;;;;84.07;19.05;;;;;;;;;;5071580;28;20205;-67
2023/02/08 04:13:46;;;;;;;85.25;19.17;;;;;;;;;;5071590;28;20229;-67
2023/02/08 04:16:14;;;;;;;84.30;19.45;;;;;;;;;;5071182;28;20211;-67
2023/02/08 04:18:41;;;;;;;79.68;17.63;;;;;;;;;;5071314;28;20449;-67
2023/02/08 04:21:08;;;;;;;81.78;19.42;;;;;;;;;;5071500;28;20232;-67
2023/02/08 04:23:36;;;;;;;82.53;19.77;;;;;;;;;;5071421;28;20233;-66
2023/02/08 04:26:06;;;;;;;89.70;21.10;;;;;;;;;;5071499;28;20227;-67
2023/02/08 04:28:33;;;;;;;84.43;18.67;;;;;;;;;;5071174;28;20233;-66
2023/02/08 04:31:00;;;;;;;85.93;20.95;;;;;;;;;;5071743;28;20201;-67
2023/02/08 04:33:27;;;;;;;85.68;19.80;;;;;;;;;;5071393;28;20586;-67
2023/02/08 04:35:54;;;;;;;83.03;20.27;;;;;;;;;;5071535;28;20201;-68
2023/02/08 04:38:21;;;;;;;79.78;17.20;;;;;;;;;;5071180;28;20214;-67
2023/02/08 04:40:48;;;;;;;89.32;20.40;;;;;;;;;;5070967;28;20225;-67
2023/02/08 04:43:17;;;;;;;90.75;16.40;;;;;;;;;;5070966;28;20205;-67
2023/02/08 04:45:44;;;;;;;78.82;16.92;;;;;;;;;;5071158;28;20208;-67
2023/02/08 04:48:11;;;;;;;91.38;16.85;;;;;;;;;;5071173;28;20206;-68
2023/02/08 04:50:38;;;;;;;84.43;18.88;;;;;;;;;;5070960;28;20201;-68
2023/02/08 04:53:06;;;;;;;82.72;19.45;;;;;;;;;;5071357;28;20201;-67
2023/02/08 04:55:33;;;;;;;85.78;20.13;;;;;;;;;;5071074;28;20645;-67
2023/02/08 04:58:00;;;;;;;114.13;29.33;;;;;;;;;;5074436;28;20206;-67
2023/02/08 05:00:29;;;;;;;114.30;30.02;;;;;;;;;;5074470;28;20701;-67
2023/02/08 05:02:56;;;;;;;120.13;28.70;;;;;;;;;;5074740;28;20229;-67
2023/02/08 05:05:24;;;;;;;105.03;26.30;;;;;;;;;;5074507;28;20225;-67
2023/02/08 05:07:51;;;;;;;111.05;27.23;;;;;;;;;;5074567;28;20208;-67
2023/02/08 05:10:18;;;;;;;123.38;28.63;;;;;;;;;;5074005;28;20205;-67
2023/02/08 05:12:46;;;;;;;110.82;24.00;;;;;;;;;;5074358;28;20204;-67
2023/02/08 05:15:13;;;;;;;87.55;19.15;;;;;;;;;;5074399;28;20224;-66
2023/02/08 05:17:41;;;;;;;96.82;19.65;;;;;;;;;;5074281;28;20205;-67
2023/02/08 05:20:09;;;;;;;77.28;16.35;;;;;;;;;;5074001;28;20208;-67
2023/02/08 05:22:36;;;;;;;92.63;20.38;;;;;;;;;;5074086;28;20225;-67
2023/02/08 05:25:04;;;;;;;88.90;20.92;;;;;;;;;;5074201;28;20236;-67
2023/02/08 05:27:31;;;;;;;108.20;27.90;;;;;;;;;;5074434;28;20235;-67
2023/02/08 05:29:58;;;;;;;90.60;23.20;;;;;;;;;;5073898;28;20211;-67
2023/02/08 05:32:25;;;;;;;96.45;26.30;;;;;;;;;;5074146;28;20212;-68
2023/02/08 05:34:53;;;;;;;89.85;24.63;;;;;;;;;;5073844;28;20602;-67
2023/02/08 05:37:21;;;;;;;91.30;22.33;;;;;;;;;;5073754;28;20205;-68
2023/02/08 05:39:48;;;;;;;82.45;20.05;;;;;;;;;;5073968;28;20315;-67
2023/02/08 05:42:15;;;;;;;84.78;20.70;;;;;;;;;;5073992;28;20225;-67
2023/02/08 05:44:42;;;;;;;82.40;20.15;;;;;;;;;;5073986;28;20229;-68
2023/02/08 05:47:09;;;;;;;87.10;20.60;;;;;;;;;;5073720;28;20211;-67
2023/02/08 05:49:36;;;;;;;91.75;22.13;;;;;;;;;;5073432;28;20211;-67
2023/02/08 05:52:05;;;;;;;89.63;21.08;;;;;;;;;;5073621;28;20209;-67
2023/02/08 05:54:32;;;;;;;84.38;20.42;;;;;;;;;;5073657;28;20231;-67
2023/02/08 05:56:59;;;;;;;82.53;18.73;;;;;;;;;;5073655;28;20213;-67
2023/02/08 05:59:26;;;;;;;84.53;21.73;;;;;;;;;;5073073;28;20678;-66
2023/02/08 06:01:53;;;;;;;83.55;18.90;;;;;;;;;;5073300;28;20225;-67
2023/02/08 06:04:20;;;;;;;84.75;19.02;;;;;;;;;;5073170;28;20225;-67
2023/02/08 06:06:47;;;;;;;81.97;20.05;;;;;;;;;;5073374;28;20209;-67
2023/02/08 06:09:16;;;;;;;83.70;19.30;;;;;;;;;;5073012;28;20205;-67
2023/02/08 06:11:43;;;;;;;86.22;18.38;;;;;;;;;;5073363;28;20201;-68
2023/02/08 06:14:10;;;;;;;86.85;18.77;;;;;;;;;;5073378;28;20641;-67
2023/02/08 06:16:37;;;;;;;92.47;21.13;;;;;;;;;;5073090;28;20217;-67
2023/02/08 06:19:05;;;;;;;83.68;19.20;;;;;;;;;;5072689;28;20299;-67
2023/02/08 06:21:32;;;;;;;88.15;18.80;;;;;;;;;;5073176;28;20628;-68
2023/02/08 06:23:59;;;;;;;87.80;18.80;;;;;;;;;;5072887;28;20237;-67
2023/02/08 06:26:27;;;;;;;82.57;18.88;;;;;;;;;;5073180;28;20213;-68
2023/02/08 06:28:54;;;;;;;77.57;17.77;;;;;;;;;;5072906;28;20214;-68
2023/02/08 06:31:21;;;;;;;84.07;18.48;;;;;;;;;;5073251;28;20575;-68
2023/02/08 06:33:49;;;;;;;85.18;20.63;;;;;;;;;;5072897;28;20508;-68
2023/02/08 06:36:16;;;;;;;82.32;18.45;;;;;;;;;;5072779;28;20209;-67
2023/02/08 06:38:43;;;;;;;78.53;17.08;;;;;;;;;;5072422;28;20562;-68
2023/02/08 06:41:10;;;;;;;83.13;16.85;;;;;;;;;;5072631;28;20201;-69
2023/02/08 06:43:39;;;;;;;87.13;19.48;;;;;;;;;;5072609;28;20221;-68
2023/02/08 06:46:07;;;;;;;84.28;18.75;;;;;;;;;;5072351;28;20212;-68
2023/02/08 06:48:34;;;;;;;79.97;17.80;;;;;;;;;;5072357;28;20638;-68
2023/02/08 06:51:01;;;;;;;91.38;21.50;;;;;;;;;;5072375;28;20209;-67
2023/02/08 06:53:28;;;;;;;86.72;20.92;;;;;;;;;;5072456;28;20232;-68
2023/02/08 06:55:55;;;;;;;86.07;20.77;;;;;;;;;;5072378;28;20656;-68
2023/02/08 06:58:23;;;;;;;77.78;16.65;;;;;;;;;;5072231;28;20209;-68
2023/02/08 07:00:51;;;;;;;80.55;18.08;;;;;;;;;;5071860;28;20209;-67
2023/02/08 07:03:18;;;;;;;78.68;15.93;;;;;;;;;;5072228;28;20229;-67
2023/02/08 07:05:45;;;;;;;86.22;18.73;;;;;;;;;;5072094;28;20197;-68
2023/02/08 07:08:12;;;;;;;79.93;16.98;;;;;;;;;;5071955;28;20677;-68
2023/02/08 07:10:40;;;;;;;72.75;15.73;;;;;;;;;;5071864;28;20331;-68
2023/02/08 07:13:07;;;;;;;82.65;18.30;;;;;;;;;;5071917;28;20425;-68
2023/02/08 07:15:34;;;;;;;77.35;16.20;;;;;;;;;;5072282;28;20212;-67
2023/02/08 07:18:03;;;;;;;79.05;15.90;;;;;;;;;;5071877;28;20216;-68
2023/02/08 07:20:30;;;;;;;75.38;16.00;;;;;;;;;;5071070;28;20209;-68
2023/02/08 07:22:58;;;;;;;89.72;18.40;;;;;;;;;;5071835;28;20229;-68
2023/02/08 07:25:25;;;;;;;79.03;17.52;;;;;;;;;;5071922;28;20221;-67
2023/02/08 07:27:52;;;;;;;75.38;16.27;;;;;;;;;;5071735;28;20201;-68
2023/02/08 07:30:19;;;;;;;78.43;16.50;;;;;;;;;;5071641;28;20677;-67
2023/02/08 07:32:46;;;;;;;76.32;15.50;;;;;;;;;;5071972;28;20588;-68
2023/02/08 07:35:15;;;;;;;77.40;15.40;;;;;;;;;;5071665;28;20235;-67
2023/02/08 07:37:42;;;;;;;91.63;21.52;;;;;;;;;;5071743;28;20208;-67
2023/02/08 07:40:10;;;;;;;81.03;17.15;;;;;;;;;;5071288;28;20209;-68
2023/02/08 07:42:37;;;;;;;82.82;19.88;;;;;;;;;;5071856;28;20235;-67
2023/02/08 07:45:04;;;;;;;87.45;20.30;;;;;;;;;;5071799;28;20221;-67
2023/02/08 07:47:31;;;;;;;83.70;20.60;;;;;;;;;;5072207;28;20201;-67
2023/02/08 07:49:58;;;;;;;91.43;24.60;;;;;;;;;;5071374;28;20231;-67
2023/02/08 07:52:27;;;;;;;85.68;20.30;;;;;;;;;;5071767;28;20627;-67
2023/02/08 07:54:54;;;;;;;86.07;20.38;;;;;;;;;;5071538;28;20647;-67
2023/02/08 07:57:22;;;;;;;86.70;21.63;;;;;;;;;;5071981;28;20211;-68
2023/02/08 07:59:49;;;;;;;82.05;20.40;;;;;;;;;;5071360;28;20205;-67
2023/02/08 08:02:17;;;;;;;85.25;21.17;;;;;;;;;;5071753;28;20247;-68
2023/02/08 08:04:44;;;;;;;93.57;21.98;;;;;;;;;;5071619;28;20221;-67
2023/02/08 08:07:11;;;;;;;93.18;22.25;;;;;;;;;;5071502;28;20201;-67
2023/02/08 08:09:40;;;;;;;86.43;21.38;;;;;;;;;;5071171;28;20221;-68
2023/02/08 08:12:07;;;;;;;88.60;24.15;;;;;;;;;;5071755;28;20197;-67
2023/02/08 08:14:34;;;;;;;89.22;21.70;;;;;;;;;;5071626;28;20225;-67
2023/02/08 08:17:01;;;;;;;86.45;20.48;;;;;;;;;;5071616;28;20202;-68
2023/02/08 08:19:28;;;;;;;88.07;20.15;;;;;;;;;;5071143;28;20211;-68
2023/02/08 08:21:55;;;;;;;83.20;20.85;;;;;;;;;;5071304;28;20229;-68
2023/02/08 08:24:22;;;;;;;88.68;23.63;;;;;;;;;;5071326;28;20244;-68
2023/02/08 08:26:51;;;;;;;90.13;22.67;;;;;;;;;;5071486;28;20474;-67
2023/02/08 08:29:18;;;;;;;83.88;20.27;;;;;;;;;;5070930;28;20300;-67
2023/02/08 08:31:45;;;;;;;90.68;25.52;;;;;;;;;;5074314;28;20669;-67
2023/02/08 08:34:12;;;;;;;87.55;23.65;;;;;;;;;;5075028;28;20221;-67
2023/02/08 08:36:39;;;;;;;86.93;22.58;;;;;;;;;;5075036;28;20211;-67
2023/02/08 08:39:06;;;;;;;89.32;23.50;;;;;;;;;;5074836;28;20213;-67
2023/02/08 08:41:35;;;;;;;82.63;19.75;;;;;;;;;;5075127;28;20699;-67
2023/02/08 08:44:04;;;;;;;83.75;21.20;;;;;;;;;;5074775;28;20237;-67
2023/02/08 08:46:31;;;;;;;83.07;17.90;;;;;;;;;;5074915;28;20208;-66
2023/02/08 08:48:58;;;;;;;80.05;19.55;;;;;;;;;;5074405;28;20205;-67
2023/02/08 08:51:25;;;;;;;82.68;18.08;;;;;;;;;;5074900;28;20206;-67
2023/02/08 08:53:52;;;;;;;79.55;18.77;;;;;;;;;;5074554;28;20743;-67
2023/02/08 08:56:20;;;;;;;78.35;17.70;;;;;;;;;;5074763;28;20201;-67
2023/02/08 08:58:47;;;;;;;79.15;17.73;;;;;;;;;;5074148;28;20295;-67
2023/02/08 09:01:15;;;;;;;81.97;17.50;;;;;;;;;;5074638;28;20209;-67
2023/02/08 09:03:42;;;;;;;80.13;17.63;;;;;;;;;;5074220;28;20234;-68
2023/02/08 09:06:09;;;;;;;78.88;17.48;;;;;;;;;;5074609;28;20204;-67
2023/02/08 09:08:36;;;;;;;79.15;17.00;;;;;;;;;;5074193;28;20212;-68
2023/02/08 09:11:07;;;;;;;77.93;16.55;;;;;;;;;;5074622;28;20673;-68
2023/02/08 09:13:34;;;;;;;80.70;18.77;;;;;;;;;;5074316;28;20228;-68
2023/02/08 09:16:05;;;;;;;80.38;17.52;;;;;;;;;;5074238;28;20297;-67
2023/02/08 09:18:33;;;;;;;78.68;17.70;;;;;;;;;;5073985;28;20693;-67
2023/02/08 09:21:00;;;;;;;76.05;15.80;;;;;;;;;;5074370;28;20211;-68
2023/02/08 09:23:27;;;;;;;75.82;16.70;;;;;;;;;;5073898;28;20709;-66
2023/02/08 09:25:54;;;;;;;74.05;16.02;;;;;;;;;;5074215;28;20212;-68
2023/02/08 09:28:21;;;;;;;74.90;15.75;;;;;;;;;;5073869;28;20211;-68
2023/02/08 09:30:48;;;;;;;76.18;15.20;;;;;;;;;;5073889;28;20235;-67
2023/02/08 09:33:16;;;;;;;76.40;15.77;;;;;;;;;;5074125;28;20197;-67
2023/02/08 09:35:44;;;;;;;74.65;14.77;;;;;;;;;;5074000;28;20673;-68
2023/02/08 09:38:11;;;;;;;75.65;15.55;;;;;;;;;;5073882;28;20206;-68
2023/02/08 09:40:42;;;;;;;77.85;15.15;;;;;;;;;;5073614;28;20210;-68
2023/02/08 09:43:12;;;;;;;73.43;15.52;;;;;;;;;;5072964;28;20234;-68
2023/02/08 09:45:49;;;;;;;76.68;14.48;;;;;;;;;;5073926;28;20582;-68
2023/02/08 09:48:22;;;;;;;75.05;15.52;;;;;;;;;;5073707;28;20691;-67
2023/02/08 09:50:53;;;;;;;75.07;16.15;;;;;;;;;;5073371;28;20202;-68
2023/02/08 09:53:22;;;;;;;76.95;14.45;;;;;;;;;;5073473;28;20203;-68
2023/02/08 09:55:51;;;;;;;76.78;14.65;;;;;;;;;;5073412;28;20588;-68
2023/02/08 09:58:21;;;;;;;78.97;14.73;;;;;;;;;;5073378;28;20706;-68
2023/02/08 10:00:50;;;;;;;75.22;14.45;;;;;;;;;;5073332;28;20606;-68
2023/02/08 10:03:24;;;;;;;71.30;13.13;;;;;;;;;;5073291;28;20225;-68
2023/02/08 10:05:52;;;;;;;76.80;14.57;;;;;;;;;;5073701;28;20579;-68
2023/02/08 10:08:19;;;;;;;75.10;14.67;;;;;;;;;;5073116;28;20212;-69
2023/02/08 10:10:51;;;;;;;75.13;14.03;;;;;;;;;;5072877;28;20451;-69
2023/02/08 10:13:27;;;;;;;74.13;15.30;;;;;;;;;;5073022;28;20448;-69
2023/02/08 10:15:59;;;;;;;72.67;14.53;;;;;;;;;;5073262;28;20963;-69
2023/02/08 10:18:34;;;;;;;75.67;15.73;;;;;;;;;;5072907;28;20970;-68
2023/02/08 10:21:12;;;;;;;74.57;16.27;;;;;;;;;;5073232;28;20458;-69
2023/02/08 10:23:57;;;;;;;72.67;16.10;;;;;;;;;;5072654;28;20491;-68
2023/02/08 10:26:30;;;;;;;73.17;14.83;;;;;;;;;;5072939;28;20453;-68
2023/02/08 10:29:15;;;;;;;71.07;13.50;;;;;;;;;;5072516;28;20459;-68
2023/02/08 10:31:48;;;;;;;72.67;14.27;;;;;;;;;;5070763;28;20459;-69
2023/02/08 10:34:20;;;;;;;70.67;13.80;;;;;;;;;;5072367;28;20984;-68
2023/02/08 10:36:49;;;;;;;73.37;15.97;;;;;;;;;;5072955;28;20961;-68
2023/02/08 10:39:17;;;;;;;78.73;14.60;;;;;;;;;;5072040;28;20538;-69
2023/02/08 10:41:45;;;;;;;72.33;15.67;;;;;;;;;;5072680;28;20444;-69
2023/02/08 10:44:18;;;;;;;72.47;14.00;;;;;;;;;;5072332;28;21026;-67
2023/02/08 10:46:50;;;;;;;70.97;14.10;;;;;;;;;;5072571;28;20499;-66
2023/02/08 10:49:20;;;;;;;73.07;14.20;;;;;;;;;;5072529;28;20453;-69
2023/02/08 10:51:48;;;;;;;69.93;14.23;;;;;;;;;;5072381;28;20447;-68
2023/02/08 10:54:16;;;;;;;68.23;13.93;;;;;;;;;;5071256;28;20459;-69
2023/02/08 10:56:45;;;;;;;72.23;14.80;;;;;;;;;;5072250;28;20459;-69
2023/02/08 10:59:16;;;;;;;73.50;15.80;;;;;;;;;;5071950;28;20444;-67
2023/02/08 11:01:45;;;;;;;73.33;13.70;;;;;;;;;;5072210;28;20450;-67
2023/02/08 11:04:13;;;;;;;69.80;14.47;;;;;;;;;;5071984;28;20501;-68
2023/02/08 11:06:41;;;;;;;71.43;13.90;;;;;;;;;;5071923;28;20991;-67
2023/02/08 11:09:20;;;;;;;71.63;13.07;;;;;;;;;;5071823;28;20447;-68
2023/02/08 11:11:49;;;;;;;71.53;14.63;;;;;;;;;;5072095;28;20465;-68
2023/02/08 11:14:17;;;;;;;69.07;13.23;;;;;;;;;;5071820;28;20513;-68
2023/02/08 11:16:49;;;;;;;71.30;13.77;;;;;;;;;;5071924;28;20457;-67
2023/02/08 11:19:21;;;;;;;67.00;12.00;;;;;;;;;;5071811;28;20451;-68
2023/02/08 11:21:51;;;;;;;70.20;13.50;;;;;;;;;;5071874;28;20457;-68
2023/02/08 11:24:26;;;;;;;67.50;12.87;;;;;;;;;;5071713;28;20487;-68
2023/02/08 11:26:55;;;;;;;67.70;12.03;;;;;;;;;;5071944;28;20500;-68
2023/02/08 11:29:23;;;;;;;68.00;12.73;;;;;;;;;;5071361;28;20496;-68
2023/02/08 11:31:58;;;;;;;68.50;10.73;;;;;;;;;;5072052;28;20454;-68
2023/02/08 11:34:26;;;;;;;65.97;9.47;;;;;;;;;;5071641;28;20463;-67
2023/02/08 11:36:53;;;;;;;66.00;9.20;;;;;;;;;;5071992;28;20473;-68
2023/02/08 11:39:23;;;;;;;64.40;8.13;;;;;;;;;;5071840;28;20447;-69
2023/02/08 11:41:54;;;;;;;65.60;8.40;;;;;;;;;;5071941;28;20456;-69
2023/02/08 11:44:23;;;;;;;65.57;9.40;;;;;;;;;;5072044;28;20487;-67
2023/02/08 11:46:50;;;;;;;64.33;8.30;;;;;;;;;;5069813;28;20439;-68
2023/02/08 11:49:22;;;;;;;63.73;7.57;;;;;;;;;;5071229;28;20875;-68
2023/02/08 11:51:51;;;;;;;65.63;9.13;;;;;;;;;;5056716;28;20456;-68
2023/02/08 11:54:32;;;;;;;66.47;8.13;;;;;;;;;;5053106;28;20472;-67
2023/02/08 11:57:05;;;;;;;73.17;18.03;;;;;;;;;;5051031;28;20539;-68
2023/02/08 11:59:32;;;;;;;63.80;7.70;;;;;;;;;;5050945;28;20447;-68
2023/02/08 12:01:59;;;;;;;63.67;7.70;;;;;;;;;;5051191;28;20936;-69
2023/02/08 12:04:26;;;;;;;64.60;8.40;;;;;;;;;;5050946;28;20480;-68
2023/02/08 12:07:02;;;;;;;64.80;8.47;;;;;;;;;;5054603;28;20470;-68
2023/02/08 12:09:37;;;;;;;65.50;8.70;;;;;;;;;;5054713;28;20974;-68
2023/02/08 12:12:12;;;;;;;64.10;8.60;;;;;;;;;;5055414;28;20447;-69
2023/02/08 12:14:47;;;;;;;65.20;8.80;;;;;;;;;;5055264;28;20811;-69
2023/02/08 12:17:26;;;;;;;65.47;9.20;;;;;;;;;;5055249;28;20970;-69
2023/02/08 12:20:07;;;;;;;65.77;9.70;;;;;;;;;;5054988;28;20451;-69
2023/02/08 12:22:38;;;;;;;64.97;8.83;;;;;;;;;;5055017;28;20459;-66
2023/02/08 12:25:16;;;;;;;64.83;9.63;;;;;;;;;;5054598;28;20554;-68
2023/02/08 12:27:51;;;;;;;64.27;8.53;;;;;;;;;;5063285;28;20455;-68
2023/02/08 12:30:23;;;;;;;63.90;8.60;;;;;;;;;;5073861;28;20453;-69
2023/02/08 12:33:07;;;;;;;62.37;8.00;;;;;;;;;;5075035;28;20802;-68
2023/02/08 12:35:47;;;;;;;63.27;8.73;;;;;;;;;;5074850;28;20451;-67
2023/02/08 12:41:07;;;;;;;62.67;7.43;;;;;;;;;;5074700;28;20421;-68
2023/02/08 12:43:47;;;;;;;63.33;8.87;;;;;;;;;;5074486;28;20495;-67
2023/02/08 12:46:19;;;;;;;64.80;8.40;;;;;;;;;;5074826;28;20442;-68
2023/02/08 12:48:57;;;;;;;63.17;7.67;;;;;;;;;;5074227;28;20447;-67
2023/02/08 12:51:27;;;;;;;66.97;7.57;;;;;;;;;;5074709;28;20445;-67
2023/02/08 12:53:56;;;;;;;63.80;8.97;;;;;;;;;;5074594;28;20494;-67
2023/02/08 12:56:25;;;;;;;63.00;8.00;;;;;;;;;;5074679;28;20453;-67
2023/02/08 12:58:54;;;;;;;63.20;8.20;;;;;;;;;;5074072;28;20455;-67
2023/02/08 13:01:23;;;;;;;62.57;6.97;;;;;;;;;;5074938;28;20502;-67
2023/02/08 13:03:53;;;;;;;61.57;7.27;;;;;;;;;;5074396;28;20498;-67
2023/02/08 13:06:23;;;;;;;62.80;7.63;;;;;;;;;;5074638;28;20451;-67
2023/02/08 13:08:52;;;;;;;62.10;7.20;;;;;;;;;;5074764;28;20444;-67
2023/02/08 13:11:24;;;;;;;61.27;6.97;;;;;;;;;;5074328;28;20974;-67
2023/02/08 13:13:57;;;;;;;67.63;6.53;;;;;;;;;;5074487;28;20474;-67
2023/02/08 13:16:25;;;;;;;62.30;7.03;;;;;;;;;;5074296;28;20451;-67
2023/02/08 13:18:54;;;;;;;65.20;6.93;;;;;;;;;;5074543;28;20461;-67
2023/02/08 13:21:23;;;;;;;61.73;7.20;;;;;;;;;;5075292;28;20556;-67
2023/02/08 13:23:50;;;;;;;64.17;8.03;;;;;;;;;;5074805;28;20490;-66
2023/02/08 13:26:19;;;;;;;64.17;7.10;;;;;;;;;;5075234;28;20443;-67
2023/02/08 13:28:47;;;;;;;62.77;6.87;;;;;;;;;;5075960;28;20546;-67
2023/02/08 13:31:19;;;;;;;65.80;8.77;;;;;;;;;;5076170;28;20452;-67
2023/02/08 13:33:48;;;;;;;64.57;7.77;;;;;;;;;;5075321;28;20475;-66
2023/02/08 13:36:24;;;;;;;63.20;7.80;;;;;;;;;;5073938;28;20821;-68
2023/02/08 13:38:51;;;;;;;65.70;8.43;;;;;;;;;;5073833;28;20443;-68
2023/02/08 13:41:20;;;;;;;65.07;8.67;;;;;;;;;;5073888;28;20838;-68
2023/02/08 13:43:50;;;;;;;63.57;8.47;;;;;;;;;;5073529;28;20991;-68
2023/02/08 13:46:19;;;;;;;64.37;8.60;;;;;;;;;;5073542;28;20961;-68
2023/02/08 13:48:51;;;;;;;64.77;9.20;;;;;;;;;;5073348;28;20823;-68
2023/02/08 13:51:42;;;;;;;64.57;9.70;;;;;;;;;;5073463;28;20457;-68
2023/02/08 13:54:11;;;;;;;66.10;8.97;;;;;;;;;;5073494;28;20459;-68
2023/02/08 13:56:40;;;;;;;73.93;16.60;;;;;;;;;;5073503;28;20822;-69
2023/02/08 13:59:25;;;;;;;70.30;13.67;;;;;;;;;;5072984;28;20447;-68
2023/02/08 14:02:10;;;;;;;64.77;9.83;;;;;;;;;;5073511;28;20446;-68
2023/02/08 14:04:39;;;;;;;63.97;8.53;;;;;;;;;;5073154;28;20964;-68
2023/02/08 14:07:15;;;;;;;64.10;9.27;;;;;;;;;;5073276;28;20475;-69
2023/02/08 14:09:47;;;;;;;65.17;9.90;;;;;;;;;;5072539;28;20445;-69
2023/02/08 14:12:16;;;;;;;65.80;9.67;;;;;;;;;;5073303;28;20466;-66
2023/02/08 14:14:43;;;;;;;63.70;8.70;;;;;;;;;;5072999;28;20467;-66
2023/02/08 14:17:21;;;;;;;64.77;9.40;;;;;;;;;;5070341;28;20459;-67
2023/02/08 14:19:58;;;;;;;65.70;10.43;;;;;;;;;;5072136;28;20447;-67
2023/02/08 14:22:26;;;;;;;63.67;9.20;;;;;;;;;;5072201;28;20443;-66
2023/02/08 14:25:01;;;;;;;64.43;9.37;;;;;;;;;;5072287;28;20494;-66
2023/02/08 14:27:31;;;;;;;65.10;9.27;;;;;;;;;;5072702;28;20442;-66
2023/02/08 14:30:00;;;;;;;63.87;8.97;;;;;;;;;;5072237;28;20456;-66
2023/02/08 14:32:28;;;;;;;64.60;9.63;;;;;;;;;;5072505;28;20463;-67
2023/02/08 14:35:05;;;;;;;64.83;9.20;;;;;;;;;;5072444;28;20922;-67
2023/02/08 14:37:33;;;;;;;63.97;9.50;;;;;;;;;;5072645;28;20475;-68